sensor_id;sensor_type;location;lat;lon;timestamp;temperature;humidity
9329;DHT22;4703;48.748;19.142;2023-05-10T00:01:30;8.60;99.90
9329;DHT22;4703;48.748;19.142;2023-05-10T00:03:57;8.60;99.90
9329;DHT22;4703;48.748;19.142;2023-05-10T00:06:24;11.30;99.90
9329;DHT22;4703;48.748;19.142;2023-05-10T00:08:51;8.60;99.90
9329;DHT22;4703;48.748;19.142;2023-05-10T00:11:18;10.20;99.90
9329;DHT22;4703;48.748;19.142;2023-05-10T00:13:48;10.40;99.90
9329;DHT22;4703;48.748;19.142;2023-05-10T00:16:15;8.50;99.90
9329;DHT22;4703;48.748;19.142;2023-05-10T00:18:42;10.30;99.90
9329;DHT22;4703;48.748;19.142;2023-05-10T00:21:09;8.50;99.90
9329;DHT22;4703;48.748;19.142;2023-05-10T00:23:36;8.70;99.90
9329;DHT22;4703;48.748;19.142;2023-05-10T00:26:04;9.90;99.90
9329;DHT22;4703;48.748;19.142;2023-05-10T00:28:31;8.50;99.90
9329;DHT22;4703;48.748;19.142;2023-05-10T00:30:58;8.50;99.90
9329;DHT22;4703;48.748;19.142;2023-05-10T00:33:24;10.40;99.90
9329;DHT22;4703;48.748;19.142;2023-05-10T00:35:51;8.40;99.90
9329;DHT22;4703;48.748;19.142;2023-05-10T00:38:19;8.50;99.90
9329;DHT22;4703;48.748;19.142;2023-05-10T00:40:45;10.90;99.90
9329;DHT22;4703;48.748;19.142;2023-05-10T00:43:12;8.50;99.90
9329;DHT22;4703;48.748;19.142;2023-05-10T00:45:40;10.90;99.90
9329;DHT22;4703;48.748;19.142;2023-05-10T00:48:08;10.90;99.90
9329;DHT22;4703;48.748;19.142;2023-05-10T00:50:35;10.70;99.90
9329;DHT22;4703;48.748;19.142;2023-05-10T00:53:02;8.40;99.90
9329;DHT22;4703;48.748;19.142;2023-05-10T00:55:30;10.40;99.90
9329;DHT22;4703;48.748;19.142;2023-05-10T00:57:57;8.30;99.90
9329;DHT22;4703;48.748;19.142;2023-05-10T01:00:24;8.30;99.90
9329;DHT22;4703;48.748;19.142;2023-05-10T01:02:53;8.30;99.90
9329;DHT22;4703;48.748;19.142;2023-05-10T01:05:21;8.20;99.90
9329;DHT22;4703;48.748;19.142;2023-05-10T01:07:48;8.20;99.90
9329;DHT22;4703;48.748;19.142;2023-05-10T01:10:15;11.20;99.90
9329;DHT22;4703;48.748;19.142;2023-05-10T01:12:45;8.20;99.90
9329;DHT22;4703;48.748;19.142;2023-05-10T01:15:14;8.10;99.90
9329;DHT22;4703;48.748;19.142;2023-05-10T01:17:44;8.00;99.90
9329;DHT22;4703;48.748;19.142;2023-05-10T01:20:12;8.00;99.90
9329;DHT22;4703;48.748;19.142;2023-05-10T01:25:27;9.50;99.90
9329;DHT22;4703;48.748;19.142;2023-05-10T01:31:06;10.50;99.90
9329;DHT22;4703;48.748;19.142;2023-05-10T01:37:08;7.80;99.90
9329;DHT22;4703;48.748;19.142;2023-05-10T01:42:20;7.60;99.90
9329;DHT22;4703;48.748;19.142;2023-05-10T01:48:05;7.50;99.90
9329;DHT22;4703;48.748;19.142;2023-05-10T01:50:36;7.50;99.90
9329;DHT22;4703;48.748;19.142;2023-05-10T01:53:08;7.40;99.90
9329;DHT22;4703;48.748;19.142;2023-05-10T01:55:47;9.30;99.90
9329;DHT22;4703;48.748;19.142;2023-05-10T01:58:29;7.40;99.90
9329;DHT22;4703;48.748;19.142;2023-05-10T02:00:59;7.30;99.90
9329;DHT22;4703;48.748;19.142;2023-05-10T02:03:28;7.30;99.90
9329;DHT22;4703;48.748;19.142;2023-05-10T02:05:57;7.30;99.90
9329;DHT22;4703;48.748;19.142;2023-05-10T02:08:25;7.20;99.90
9329;DHT22;4703;48.748;19.142;2023-05-10T02:10:54;7.20;99.90
9329;DHT22;4703;48.748;19.142;2023-05-10T02:13:24;7.40;99.90
9329;DHT22;4703;48.748;19.142;2023-05-10T02:15:53;7.10;99.90
9329;DHT22;4703;48.748;19.142;2023-05-10T02:18:22;7.00;99.90
9329;DHT22;4703;48.748;19.142;2023-05-10T02:20:51;6.90;99.90
9329;DHT22;4703;48.748;19.142;2023-05-10T02:23:20;8.50;99.90
9329;DHT22;4703;48.748;19.142;2023-05-10T02:25:48;9.50;99.90
9329;DHT22;4703;48.748;19.142;2023-05-10T02:28:17;6.90;99.90
9329;DHT22;4703;48.748;19.142;2023-05-10T02:30:44;6.80;99.90
9329;DHT22;4703;48.748;19.142;2023-05-10T02:33:14;6.80;99.90
9329;DHT22;4703;48.748;19.142;2023-05-10T02:35:41;6.80;99.90
9329;DHT22;4703;48.748;19.142;2023-05-10T02:38:09;8.60;99.90
9329;DHT22;4703;48.748;19.142;2023-05-10T02:40:40;9.10;99.90
9329;DHT22;4703;48.748;19.142;2023-05-10T02:43:13;6.70;99.90
9329;DHT22;4703;48.748;19.142;2023-05-10T02:45:41;6.70;99.90
9329;DHT22;4703;48.748;19.142;2023-05-10T02:48:09;6.70;99.90
9329;DHT22;4703;48.748;19.142;2023-05-10T02:50:37;6.70;99.90
9329;DHT22;4703;48.748;19.142;2023-05-10T02:53:11;6.60;99.90
9329;DHT22;4703;48.748;19.142;2023-05-10T02:55:43;8.50;99.90
9329;DHT22;4703;48.748;19.142;2023-05-10T02:58:13;8.10;99.90
9329;DHT22;4703;48.748;19.142;2023-05-10T03:00:40;6.60;99.90
9329;DHT22;4703;48.748;19.142;2023-05-10T03:03:07;6.60;99.90
9329;DHT22;4703;48.748;19.142;2023-05-10T03:05:34;6.60;99.90
9329;DHT22;4703;48.748;19.142;2023-05-10T03:08:01;6.60;99.90
9329;DHT22;4703;48.748;19.142;2023-05-10T03:10:31;6.60;99.90
9329;DHT22;4703;48.748;19.142;2023-05-10T03:13:29;6.60;99.90
9329;DHT22;4703;48.748;19.142;2023-05-10T03:16:22;6.60;99.90
9329;DHT22;4703;48.748;19.142;2023-05-10T03:19:04;6.50;99.90
9329;DHT22;4703;48.748;19.142;2023-05-10T03:21:38;7.90;99.90
9329;DHT22;4703;48.748;19.142;2023-05-10T03:24:09;6.50;99.90
9329;DHT22;4703;48.748;19.142;2023-05-10T03:26:39;6.40;99.90
9329;DHT22;4703;48.748;19.142;2023-05-10T03:29:06;8.90;99.90
9329;DHT22;4703;48.748;19.142;2023-05-10T03:31:34;6.50;99.90
9329;DHT22;4703;48.748;19.142;2023-05-10T03:34:01;6.40;99.90
9329;DHT22;4703;48.748;19.142;2023-05-10T03:36:29;8.80;99.90
9329;DHT22;4703;48.748;19.142;2023-05-10T03:38:56;6.50;99.90
9329;DHT22;4703;48.748;19.142;2023-05-10T03:41:23;6.60;99.90
9329;DHT22;4703;48.748;19.142;2023-05-10T03:43:50;6.60;99.90
9329;DHT22;4703;48.748;19.142;2023-05-10T03:46:17;6.70;99.90
9329;DHT22;4703;48.748;19.142;2023-05-10T03:48:44;6.70;99.90
9329;DHT22;4703;48.748;19.142;2023-05-10T03:51:11;7.60;99.90
9329;DHT22;4703;48.748;19.142;2023-05-10T03:53:38;6.80;99.90
9329;DHT22;4703;48.748;19.142;2023-05-10T03:56:05;6.80;99.90
9329;DHT22;4703;48.748;19.142;2023-05-10T03:58:32;6.90;99.90
9329;DHT22;4703;48.748;19.142;2023-05-10T04:00:59;6.90;99.90
9329;DHT22;4703;48.748;19.142;2023-05-10T04:03:26;7.00;99.90
9329;DHT22;4703;48.748;19.142;2023-05-10T04:06:00;7.00;99.90
9329;DHT22;4703;48.748;19.142;2023-05-10T04:08:28;7.10;99.90
9329;DHT22;4703;48.748;19.142;2023-05-10T04:11:07;7.10;99.90
9329;DHT22;4703;48.748;19.142;2023-05-10T04:13:36;7.20;99.90
9329;DHT22;4703;48.748;19.142;2023-05-10T04:16:03;7.20;99.90
9329;DHT22;4703;48.748;19.142;2023-05-10T04:18:31;7.30;99.90
9329;DHT22;4703;48.748;19.142;2023-05-10T04:20:58;7.30;99.90
9329;DHT22;4703;48.748;19.142;2023-05-10T04:23:25;7.30;99.90
9329;DHT22;4703;48.748;19.142;2023-05-10T04:25:52;7.30;99.90
9329;DHT22;4703;48.748;19.142;2023-05-10T04:28:19;7.40;99.90
9329;DHT22;4703;48.748;19.142;2023-05-10T04:30:46;7.40;99.90
9329;DHT22;4703;48.748;19.142;2023-05-10T04:33:13;7.40;99.90
9329;DHT22;4703;48.748;19.142;2023-05-10T04:35:41;7.40;99.90
9329;DHT22;4703;48.748;19.142;2023-05-10T04:38:08;7.50;99.90
9329;DHT22;4703;48.748;19.142;2023-05-10T04:40:34;7.50;99.90
9329;DHT22;4703;48.748;19.142;2023-05-10T04:43:02;10.60;99.90
9329;DHT22;4703;48.748;19.142;2023-05-10T04:45:29;6.70;99.90
9329;DHT22;4703;48.748;19.142;2023-05-10T04:47:56;7.60;99.90
9329;DHT22;4703;48.748;19.142;2023-05-10T04:50:23;7.60;99.90
9329;DHT22;4703;48.748;19.142;2023-05-10T04:52:50;7.70;99.90
9329;DHT22;4703;48.748;19.142;2023-05-10T04:55:18;7.70;99.90
9329;DHT22;4703;48.748;19.142;2023-05-10T04:57:45;7.80;99.90
9329;DHT22;4703;48.748;19.142;2023-05-10T05:00:13;7.90;99.90
9329;DHT22;4703;48.748;19.142;2023-05-10T05:02:44;8.00;99.90
9329;DHT22;4703;48.748;19.142;2023-05-10T05:05:14;8.00;99.90
9329;DHT22;4703;48.748;19.142;2023-05-10T05:07:41;9.30;99.90
9329;DHT22;4703;48.748;19.142;2023-05-10T05:10:08;8.20;99.90
9329;DHT22;4703;48.748;19.142;2023-05-10T05:12:35;8.30;99.90
9329;DHT22;4703;48.748;19.142;2023-05-10T05:15:02;9.60;99.90
9329;DHT22;4703;48.748;19.142;2023-05-10T05:17:30;8.40;99.90
9329;DHT22;4703;48.748;19.142;2023-05-10T05:19:58;11.50;99.90
9329;DHT22;4703;48.748;19.142;2023-05-10T05:22:24;8.50;99.90
9329;DHT22;4703;48.748;19.142;2023-05-10T05:24:55;8.50;99.90
9329;DHT22;4703;48.748;19.142;2023-05-10T05:27:22;10.60;99.90
9329;DHT22;4703;48.748;19.142;2023-05-10T05:29:52;10.70;99.90
9329;DHT22;4703;48.748;19.142;2023-05-10T05:32:20;8.70;99.90
9329;DHT22;4703;48.748;19.142;2023-05-10T05:34:47;8.70;99.90
9329;DHT22;4703;48.748;19.142;2023-05-10T05:37:16;8.90;99.90
9329;DHT22;4703;48.748;19.142;2023-05-10T05:39:44;8.90;99.90
9329;DHT22;4703;48.748;19.142;2023-05-10T05:42:12;11.20;99.90
9329;DHT22;4703;48.748;19.142;2023-05-10T05:44:39;9.00;99.90
9329;DHT22;4703;48.748;19.142;2023-05-10T05:47:06;9.10;99.90
9329;DHT22;4703;48.748;19.142;2023-05-10T05:49:33;9.50;99.90
9329;DHT22;4703;48.748;19.142;2023-05-10T05:52:01;9.20;99.90
9329;DHT22;4703;48.748;19.142;2023-05-10T05:54:30;11.60;99.90
9329;DHT22;4703;48.748;19.142;2023-05-10T05:56:58;10.80;99.90
9329;DHT22;4703;48.748;19.142;2023-05-10T05:59:27;11.40;99.90
9329;DHT22;4703;48.748;19.142;2023-05-10T06:01:54;12.00;99.90
9329;DHT22;4703;48.748;19.142;2023-05-10T06:04:21;12.10;99.90
9329;DHT22;4703;48.748;19.142;2023-05-10T06:06:48;9.50;99.90
9329;DHT22;4703;48.748;19.142;2023-05-10T06:09:15;9.90;99.90
9329;DHT22;4703;48.748;19.142;2023-05-10T06:11:42;9.70;99.90
9329;DHT22;4703;48.748;19.142;2023-05-10T06:14:09;10.10;99.90
9329;DHT22;4703;48.748;19.142;2023-05-10T06:16:36;11.60;99.90
9329;DHT22;4703;48.748;19.142;2023-05-10T06:19:03;9.90;99.90
9329;DHT22;4703;48.748;19.142;2023-05-10T06:21:30;10.80;99.90
9329;DHT22;4703;48.748;19.142;2023-05-10T06:23:57;11.90;99.90
9329;DHT22;4703;48.748;19.142;2023-05-10T06:26:24;12.40;99.90
9329;DHT22;4703;48.748;19.142;2023-05-10T06:28:51;12.10;99.90
9329;DHT22;4703;48.748;19.142;2023-05-10T06:31:18;12.80;99.90
9329;DHT22;4703;48.748;19.142;2023-05-10T06:33:45;11.50;99.90
9329;DHT22;4703;48.748;19.142;2023-05-10T06:36:12;12.40;99.90
9329;DHT22;4703;48.748;19.142;2023-05-10T06:38:39;12.30;99.90
9329;DHT22;4703;48.748;19.142;2023-05-10T06:41:06;12.00;99.90
9329;DHT22;4703;48.748;19.142;2023-05-10T06:43:33;10.50;99.50
9329;DHT22;4703;48.748;19.142;2023-05-10T06:46:01;10.50;99.20
9329;DHT22;4703;48.748;19.142;2023-05-10T06:48:28;10.50;99.30
9329;DHT22;4703;48.748;19.142;2023-05-10T06:50:55;10.60;99.30
9329;DHT22;4703;48.748;19.142;2023-05-10T06:53:22;11.80;99.90
9329;DHT22;4703;48.748;19.142;2023-05-10T06:55:49;12.10;99.90
9329;DHT22;4703;48.748;19.142;2023-05-10T06:58:16;10.80;99.90
9329;DHT22;4703;48.748;19.142;2023-05-10T07:00:44;12.10;99.90
9329;DHT22;4703;48.748;19.142;2023-05-10T07:03:12;10.60;99.20
9329;DHT22;4703;48.748;19.142;2023-05-10T07:05:40;10.60;98.80
9329;DHT22;4703;48.748;19.142;2023-05-10T07:08:07;10.60;98.70
9329;DHT22;4703;48.748;19.142;2023-05-10T07:10:34;12.60;99.80
9329;DHT22;4703;48.748;19.142;2023-05-10T07:13:01;11.60;99.30
9329;DHT22;4703;48.748;19.142;2023-05-10T07:15:28;10.70;99.00
9329;DHT22;4703;48.748;19.142;2023-05-10T07:17:55;12.80;99.90
9329;DHT22;4703;48.748;19.142;2023-05-10T07:20:22;10.80;98.80
9329;DHT22;4703;48.748;19.142;2023-05-10T07:22:49;12.40;99.20
9329;DHT22;4703;48.748;19.142;2023-05-10T07:25:16;13.20;99.40
9329;DHT22;4703;48.748;19.142;2023-05-10T07:27:43;12.10;98.40
9329;DHT22;4703;48.748;19.142;2023-05-10T07:30:11;12.90;98.80
9329;DHT22;4703;48.748;19.142;2023-05-10T07:32:38;11.20;98.10
9329;DHT22;4703;48.748;19.142;2023-05-10T07:35:06;11.20;98.00
9329;DHT22;4703;48.748;19.142;2023-05-10T07:37:33;11.30;98.40
9329;DHT22;4703;48.748;19.142;2023-05-10T07:40:02;12.90;99.50
9329;DHT22;4703;48.748;19.142;2023-05-10T07:42:30;11.30;98.60
9329;DHT22;4703;48.748;19.142;2023-05-10T07:44:57;12.80;99.30
9329;DHT22;4703;48.748;19.142;2023-05-10T07:47:24;11.60;98.90
9329;DHT22;4703;48.748;19.142;2023-05-10T07:49:51;13.30;99.10
9329;DHT22;4703;48.748;19.142;2023-05-10T07:52:18;12.50;98.50
9329;DHT22;4703;48.748;19.142;2023-05-10T07:54:48;13.20;99.10
9329;DHT22;4703;48.748;19.142;2023-05-10T07:57:15;11.70;98.80
9329;DHT22;4703;48.748;19.142;2023-05-10T07:59:44;11.70;97.90
9329;DHT22;4703;48.748;19.142;2023-05-10T08:02:11;12.10;97.90
9329;DHT22;4703;48.748;19.142;2023-05-10T08:04:38;13.80;97.90
9329;DHT22;4703;48.748;19.142;2023-05-10T08:07:05;12.00;96.50
9329;DHT22;4703;48.748;19.142;2023-05-10T08:09:32;13.80;97.30
9329;DHT22;4703;48.748;19.142;2023-05-10T08:11:59;14.20;97.80
9329;DHT22;4703;48.748;19.142;2023-05-10T08:14:28;14.20;98.80
9329;DHT22;4703;48.748;19.142;2023-05-10T08:16:56;14.30;97.60
9329;DHT22;4703;48.748;19.142;2023-05-10T08:19:23;13.70;97.30
9329;DHT22;4703;48.748;19.142;2023-05-10T08:21:50;12.60;95.80
9329;DHT22;4703;48.748;19.142;2023-05-10T08:24:17;13.60;95.80
9329;DHT22;4703;48.748;19.142;2023-05-10T08:26:44;13.40;95.90
9329;DHT22;4703;48.748;19.142;2023-05-10T08:29:11;13.20;95.70
9329;DHT22;4703;48.748;19.142;2023-05-10T08:31:38;12.90;95.50
9329;DHT22;4703;48.748;19.142;2023-05-10T08:34:05;13.00;95.20
9329;DHT22;4703;48.748;19.142;2023-05-10T08:36:32;14.50;95.60
9329;DHT22;4703;48.748;19.142;2023-05-10T08:38:59;13.10;95.20
9329;DHT22;4703;48.748;19.142;2023-05-10T08:41:26;14.00;95.80
9329;DHT22;4703;48.748;19.142;2023-05-10T08:43:54;13.20;95.70
9329;DHT22;4703;48.748;19.142;2023-05-10T08:46:23;14.40;97.00
9329;DHT22;4703;48.748;19.142;2023-05-10T08:48:51;13.30;96.00
9329;DHT22;4703;48.748;19.142;2023-05-10T08:51:22;13.60;95.60
9329;DHT22;4703;48.748;19.142;2023-05-10T08:53:53;14.70;96.00
9329;DHT22;4703;48.748;19.142;2023-05-10T08:56:20;14.10;95.20
9329;DHT22;4703;48.748;19.142;2023-05-10T08:58:47;13.50;94.30
9329;DHT22;4703;48.748;19.142;2023-05-10T09:01:16;14.20;94.50
9329;DHT22;4703;48.748;19.142;2023-05-10T09:03:46;14.30;94.90
9329;DHT22;4703;48.748;19.142;2023-05-10T09:06:14;14.90;94.80
9329;DHT22;4703;48.748;19.142;2023-05-10T09:08:42;13.60;94.40
9329;DHT22;4703;48.748;19.142;2023-05-10T09:11:11;13.70;94.10
9329;DHT22;4703;48.748;19.142;2023-05-10T09:13:38;14.00;94.90
9329;DHT22;4703;48.748;19.142;2023-05-10T09:16:05;14.30;95.20
9329;DHT22;4703;48.748;19.142;2023-05-10T09:18:47;14.00;94.90
9329;DHT22;4703;48.748;19.142;2023-05-10T09:21:14;14.10;95.00
9329;DHT22;4703;48.748;19.142;2023-05-10T09:23:47;14.70;95.00
9329;DHT22;4703;48.748;19.142;2023-05-10T09:26:16;14.50;94.60
9329;DHT22;4703;48.748;19.142;2023-05-10T09:28:55;14.70;94.00
9329;DHT22;4703;48.748;19.142;2023-05-10T09:31:23;15.10;93.10
9329;DHT22;4703;48.748;19.142;2023-05-10T09:33:52;15.10;92.90
9329;DHT22;4703;48.748;19.142;2023-05-10T09:36:19;15.30;92.70
9329;DHT22;4703;48.748;19.142;2023-05-10T09:38:51;15.60;93.00
9329;DHT22;4703;48.748;19.142;2023-05-10T09:41:22;15.70;93.30
9329;DHT22;4703;48.748;19.142;2023-05-10T09:43:50;15.40;92.20
9329;DHT22;4703;48.748;19.142;2023-05-10T09:46:22;15.40;92.00
9329;DHT22;4703;48.748;19.142;2023-05-10T09:48:49;15.40;91.80
9329;DHT22;4703;48.748;19.142;2023-05-10T09:51:24;15.70;92.10
9329;DHT22;4703;48.748;19.142;2023-05-10T09:54:12;15.30;91.20
9329;DHT22;4703;48.748;19.142;2023-05-10T09:56:41;15.30;91.80
9329;DHT22;4703;48.748;19.142;2023-05-10T09:59:11;16.00;92.90
9329;DHT22;4703;48.748;19.142;2023-05-10T10:01:39;15.60;92.50
9329;DHT22;4703;48.748;19.142;2023-05-10T10:04:08;15.20;92.10
9329;DHT22;4703;48.748;19.142;2023-05-10T10:06:37;15.20;90.80
9329;DHT22;4703;48.748;19.142;2023-05-10T10:09:06;15.20;90.10
9329;DHT22;4703;48.748;19.142;2023-05-10T10:11:35;15.20;90.50
9329;DHT22;4703;48.748;19.142;2023-05-10T10:14:04;15.10;90.60
9329;DHT22;4703;48.748;19.142;2023-05-10T10:16:32;15.70;90.80
9329;DHT22;4703;48.748;19.142;2023-05-10T10:18:58;15.40;91.70
9329;DHT22;4703;48.748;19.142;2023-05-10T10:21:26;15.70;91.30
9329;DHT22;4703;48.748;19.142;2023-05-10T10:23:53;15.10;90.70
9329;DHT22;4703;48.748;19.142;2023-05-10T10:26:21;15.10;91.80
9329;DHT22;4703;48.748;19.142;2023-05-10T10:32:42;15.50;92.50
9329;DHT22;4703;48.748;19.142;2023-05-10T10:34:49;15.20;90.90
9329;DHT22;4703;48.748;19.142;2023-05-10T10:37:16;15.70;90.50
9329;DHT22;4703;48.748;19.142;2023-05-10T10:39:43;17.80;91.20
9329;DHT22;4703;48.748;19.142;2023-05-10T10:42:10;17.10;89.80
9329;DHT22;4703;48.748;19.142;2023-05-10T10:44:37;15.80;87.00
9329;DHT22;4703;48.748;19.142;2023-05-10T10:52:30;16.00;84.10
9329;DHT22;4703;48.748;19.142;2023-05-10T10:55:06;16.20;85.20
9329;DHT22;4703;48.748;19.142;2023-05-10T10:57:47;16.10;84.60
9329;DHT22;4703;48.748;19.142;2023-05-10T11:03:14;16.30;82.30
9329;DHT22;4703;48.748;19.142;2023-05-10T11:05:49;16.60;84.40
9329;DHT22;4703;48.748;19.142;2023-05-10T11:08:30;16.80;82.30
9329;DHT22;4703;48.748;19.142;2023-05-10T11:13:39;17.50;78.90
9329;DHT22;4703;48.748;19.142;2023-05-10T11:16:41;17.60;77.80
9329;DHT22;4703;48.748;19.142;2023-05-10T11:19:14;17.80;79.80
9329;DHT22;4703;48.748;19.142;2023-05-10T11:21:49;18.10;80.20
9329;DHT22;4703;48.748;19.142;2023-05-10T11:24:20;18.30;78.30
9329;DHT22;4703;48.748;19.142;2023-05-10T11:26:51;18.30;75.10
9329;DHT22;4703;48.748;19.142;2023-05-10T11:29:18;18.20;78.80
9329;DHT22;4703;48.748;19.142;2023-05-10T11:31:46;18.30;78.00
9329;DHT22;4703;48.748;19.142;2023-05-10T11:34:28;18.40;79.10
9329;DHT22;4703;48.748;19.142;2023-05-10T11:37:02;18.30;78.50
9329;DHT22;4703;48.748;19.142;2023-05-10T11:39:30;18.10;80.40
9329;DHT22;4703;48.748;19.142;2023-05-10T11:41:58;18.00;80.40
9329;DHT22;4703;48.748;19.142;2023-05-10T11:44:30;17.80;80.40
9329;DHT22;4703;48.748;19.142;2023-05-10T11:47:01;17.80;81.40
9329;DHT22;4703;48.748;19.142;2023-05-10T11:49:29;17.60;81.40
9329;DHT22;4703;48.748;19.142;2023-05-10T11:52:06;17.50;82.60
9329;DHT22;4703;48.748;19.142;2023-05-10T11:54:34;17.30;83.40
9329;DHT22;4703;48.748;19.142;2023-05-10T11:57:04;17.10;82.90
9329;DHT22;4703;48.748;19.142;2023-05-10T11:59:31;17.00;83.00
9329;DHT22;4703;48.748;19.142;2023-05-10T12:01:58;16.90;84.80
9329;DHT22;4703;48.748;19.142;2023-05-10T12:04:26;16.90;83.70
9329;DHT22;4703;48.748;19.142;2023-05-10T12:06:55;17.00;81.80
9329;DHT22;4703;48.748;19.142;2023-05-10T12:09:22;17.30;84.30
9329;DHT22;4703;48.748;19.142;2023-05-10T12:11:55;17.50;84.60
9329;DHT22;4703;48.748;19.142;2023-05-10T12:14:26;17.70;84.30
9329;DHT22;4703;48.748;19.142;2023-05-10T12:16:57;17.80;81.70
9329;DHT22;4703;48.748;19.142;2023-05-10T12:19:24;18.00;79.60
9329;DHT22;4703;48.748;19.142;2023-05-10T12:21:51;18.20;81.80
9329;DHT22;4703;48.748;19.142;2023-05-10T12:24:18;17.80;81.60
9329;DHT22;4703;48.748;19.142;2023-05-10T12:26:45;18.50;79.30
9329;DHT22;4703;48.748;19.142;2023-05-10T12:29:30;18.40;77.50
9329;DHT22;4703;48.748;19.142;2023-05-10T12:31:58;18.30;76.60
9329;DHT22;4703;48.748;19.142;2023-05-10T12:34:34;18.40;79.20
9329;DHT22;4703;48.748;19.142;2023-05-10T12:37:03;18.70;80.70
9329;DHT22;4703;48.748;19.142;2023-05-10T12:39:43;18.80;78.00
9329;DHT22;4703;48.748;19.142;2023-05-10T12:42:11;18.90;72.50
9329;DHT22;4703;48.748;19.142;2023-05-10T12:44:38;18.90;70.90
9329;DHT22;4703;48.748;19.142;2023-05-10T12:47:06;18.90;70.80
9329;DHT22;4703;48.748;19.142;2023-05-10T12:49:33;18.90;69.60
9329;DHT22;4703;48.748;19.142;2023-05-10T12:52:00;18.90;71.50
9329;DHT22;4703;48.748;19.142;2023-05-10T12:54:27;19.10;74.70
9329;DHT22;4703;48.748;19.142;2023-05-10T12:56:54;19.40;75.10
9329;DHT22;4703;48.748;19.142;2023-05-10T12:59:21;19.40;76.50
9329;DHT22;4703;48.748;19.142;2023-05-10T13:01:49;19.40;73.00
9329;DHT22;4703;48.748;19.142;2023-05-10T13:04:16;19.30;73.60
9329;DHT22;4703;48.748;19.142;2023-05-10T13:06:43;19.20;74.10
9329;DHT22;4703;48.748;19.142;2023-05-10T13:09:10;19.00;72.60
9329;DHT22;4703;48.748;19.142;2023-05-10T13:11:37;18.80;74.10
9329;DHT22;4703;48.748;19.142;2023-05-10T13:14:04;18.60;74.50
9329;DHT22;4703;48.748;19.142;2023-05-10T13:16:31;18.50;74.50
9329;DHT22;4703;48.748;19.142;2023-05-10T13:18:58;18.30;74.40
9329;DHT22;4703;48.748;19.142;2023-05-10T13:21:25;18.10;74.70
9329;DHT22;4703;48.748;19.142;2023-05-10T13:23:53;18.00;75.00
9329;DHT22;4703;48.748;19.142;2023-05-10T13:26:20;17.90;74.20
9329;DHT22;4703;48.748;19.142;2023-05-10T13:28:47;17.70;75.20
9329;DHT22;4703;48.748;19.142;2023-05-10T13:31:16;17.60;75.20
9329;DHT22;4703;48.748;19.142;2023-05-10T13:33:43;17.50;76.30
9329;DHT22;4703;48.748;19.142;2023-05-10T13:36:10;17.40;76.80
9329;DHT22;4703;48.748;19.142;2023-05-10T13:38:37;17.30;77.10
9329;DHT22;4703;48.748;19.142;2023-05-10T13:41:04;17.20;76.90
9329;DHT22;4703;48.748;19.142;2023-05-10T13:43:31;17.10;76.20
9329;DHT22;4703;48.748;19.142;2023-05-10T13:45:58;17.00;75.80
9329;DHT22;4703;48.748;19.142;2023-05-10T13:48:25;16.90;75.70
9329;DHT22;4703;48.748;19.142;2023-05-10T13:50:53;16.90;77.10
9329;DHT22;4703;48.748;19.142;2023-05-10T13:53:20;16.90;79.00
9329;DHT22;4703;48.748;19.142;2023-05-10T13:55:47;17.00;79.50
9329;DHT22;4703;48.748;19.142;2023-05-10T13:58:14;16.90;78.10
9329;DHT22;4703;48.748;19.142;2023-05-10T14:00:41;17.10;79.30
9329;DHT22;4703;48.748;19.142;2023-05-10T14:03:08;17.40;80.70
9329;DHT22;4703;48.748;19.142;2023-05-10T14:05:38;17.70;75.70
9329;DHT22;4703;48.748;19.142;2023-05-10T14:08:05;18.10;77.20
9329;DHT22;4703;48.748;19.142;2023-05-10T14:10:31;18.70;78.00
9329;DHT22;4703;48.748;19.142;2023-05-10T14:12:58;19.30;77.80
9329;DHT22;4703;48.748;19.142;2023-05-10T14:15:26;20.10;73.90
9329;DHT22;4703;48.748;19.142;2023-05-10T14:17:52;20.90;70.50
9329;DHT22;4703;48.748;19.142;2023-05-10T14:20:20;21.60;56.60
9329;DHT22;4703;48.748;19.142;2023-05-10T14:22:47;22.10;52.10
9329;DHT22;4703;48.748;19.142;2023-05-10T14:25:14;22.50;51.90
9329;DHT22;4703;48.748;19.142;2023-05-10T14:27:42;22.90;51.30
9329;DHT22;4703;48.748;19.142;2023-05-10T14:30:09;23.20;50.80
9329;DHT22;4703;48.748;19.142;2023-05-10T14:32:36;23.40;50.60
9329;DHT22;4703;48.748;19.142;2023-05-10T14:35:04;23.60;49.20
9329;DHT22;4703;48.748;19.142;2023-05-10T14:37:32;23.40;48.90
9329;DHT22;4703;48.748;19.142;2023-05-10T14:39:59;22.90;48.80
9329;DHT22;4703;48.748;19.142;2023-05-10T14:42:27;22.50;50.10
9329;DHT22;4703;48.748;19.142;2023-05-10T14:44:55;22.10;51.30
9329;DHT22;4703;48.748;19.142;2023-05-10T14:47:22;21.70;51.70
9329;DHT22;4703;48.748;19.142;2023-05-10T14:49:49;21.30;52.80
9329;DHT22;4703;48.748;19.142;2023-05-10T14:52:16;21.00;53.70
9329;DHT22;4703;48.748;19.142;2023-05-10T14:54:43;20.70;53.80
9329;DHT22;4703;48.748;19.142;2023-05-10T14:57:10;20.30;54.70
9329;DHT22;4703;48.748;19.142;2023-05-10T14:59:37;20.00;55.50
9329;DHT22;4703;48.748;19.142;2023-05-10T15:02:05;19.80;56.10
9329;DHT22;4703;48.748;19.142;2023-05-10T15:04:32;19.50;57.30
9329;DHT22;4703;48.748;19.142;2023-05-10T15:07:00;19.30;58.10
9329;DHT22;4703;48.748;19.142;2023-05-10T15:09:27;19.00;57.70
9329;DHT22;4703;48.748;19.142;2023-05-10T15:11:54;18.80;57.60
9329;DHT22;4703;48.748;19.142;2023-05-10T15:14:22;18.60;57.70
9329;DHT22;4703;48.748;19.142;2023-05-10T15:16:49;18.30;58.60
9329;DHT22;4703;48.748;19.142;2023-05-10T15:19:16;18.30;59.50
9329;DHT22;4703;48.748;19.142;2023-05-10T15:21:43;18.10;59.60
9329;DHT22;4703;48.748;19.142;2023-05-10T15:24:11;18.30;60.30
9329;DHT22;4703;48.748;19.142;2023-05-10T15:26:38;18.10;60.60
9329;DHT22;4703;48.748;19.142;2023-05-10T15:29:05;18.20;61.10
9329;DHT22;4703;48.748;19.142;2023-05-10T15:31:32;18.10;60.30
9329;DHT22;4703;48.748;19.142;2023-05-10T15:34:01;18.00;61.00
9329;DHT22;4703;48.748;19.142;2023-05-10T15:36:28;18.20;61.60
9329;DHT22;4703;48.748;19.142;2023-05-10T15:38:55;18.50;62.00
9329;DHT22;4703;48.748;19.142;2023-05-10T15:41:22;18.60;60.20
9329;DHT22;4703;48.748;19.142;2023-05-10T15:43:50;18.80;61.60
9329;DHT22;4703;48.748;19.142;2023-05-10T15:46:17;18.70;62.60
9329;DHT22;4703;48.748;19.142;2023-05-10T15:48:44;18.60;63.30
9329;DHT22;4703;48.748;19.142;2023-05-10T15:51:11;18.50;63.20
9329;DHT22;4703;48.748;19.142;2023-05-10T15:53:38;18.20;63.70
9329;DHT22;4703;48.748;19.142;2023-05-10T15:56:18;18.10;64.80
9329;DHT22;4703;48.748;19.142;2023-05-10T15:58:45;18.10;65.40
9329;DHT22;4703;48.748;19.142;2023-05-10T16:01:12;18.30;64.90
9329;DHT22;4703;48.748;19.142;2023-05-10T16:03:39;18.10;64.30
9329;DHT22;4703;48.748;19.142;2023-05-10T16:06:06;18.40;64.30
9329;DHT22;4703;48.748;19.142;2023-05-10T16:08:33;18.50;63.40
9329;DHT22;4703;48.748;19.142;2023-05-10T16:11:01;18.70;62.80
9329;DHT22;4703;48.748;19.142;2023-05-10T16:13:28;18.70;59.60
9329;DHT22;4703;48.748;19.142;2023-05-10T16:15:56;19.00;57.70
9329;DHT22;4703;48.748;19.142;2023-05-10T16:18:23;19.20;57.70
9329;DHT22;4703;48.748;19.142;2023-05-10T16:20:52;19.60;56.20
9329;DHT22;4703;48.748;19.142;2023-05-10T16:23:19;19.90;55.10
9329;DHT22;4703;48.748;19.142;2023-05-10T16:25:46;20.40;54.70
9329;DHT22;4703;48.748;19.142;2023-05-10T16:28:13;21.00;53.60